createdAt,value
2016-11-16T00:00:41.756Z,1017.78
2016-11-16T00:01:50.762Z,1017.74
2016-11-16T00:02:59.487Z,1017.77
2016-11-16T00:04:08.496Z,1017.75
2016-11-16T00:05:17.543Z,1017.73
2016-11-16T00:06:26.261Z,1017.72
2016-11-16T00:07:34.954Z,1017.72
2016-11-16T00:08:43.988Z,1017.72
2016-11-16T00:09:53.006Z,1017.7
2016-11-16T00:11:01.751Z,1017.7
2016-11-16T00:12:11.091Z,1017.65
2016-11-16T00:13:20.447Z,1017.66
2016-11-16T00:14:29.471Z,1017.67
2016-11-16T00:15:38.500Z,1017.66
2016-11-16T00:16:47.825Z,1017.63
2016-11-16T00:17:57.185Z,1017.61
2016-11-16T00:19:05.946Z,1017.59
2016-11-16T00:20:14.981Z,1017.56
2016-11-16T00:21:24.041Z,1017.51
2016-11-16T00:22:33.370Z,1017.5
2016-11-16T00:23:42.747Z,1017.51
2016-11-16T00:24:52.085Z,1017.48
2016-11-16T00:26:00.837Z,1017.45
2016-11-16T00:27:09.582Z,1017.46
2016-11-16T00:28:19.240Z,1017.41
2016-11-16T00:29:28.272Z,1017.42
2016-11-16T00:30:37.594Z,1017.38
2016-11-16T00:31:46.602Z,1017.42
2016-11-16T00:32:55.313Z,1017.38
2016-11-16T00:34:04.660Z,1017.39
2016-11-16T00:35:13.687Z,1017.38
2016-11-16T00:36:23.014Z,1017.41
2016-11-16T00:37:32.375Z,1017.36
2016-11-16T00:38:41.763Z,1017.36
2016-11-16T00:39:50.472Z,1017.34
2016-11-16T00:40:59.230Z,1017.29
2016-11-16T00:42:07.980Z,1017.32
2016-11-16T00:43:16.683Z,1017.36
2016-11-16T00:44:25.701Z,1017.27
2016-11-16T00:45:34.412Z,1017.27
2016-11-16T00:46:43.153Z,1017.25
2016-11-16T00:47:51.850Z,1017.25
2016-11-16T00:49:00.569Z,1017.19
2016-11-16T00:50:10.296Z,1017.2
2016-11-16T00:51:19.638Z,1017.22
2016-11-16T00:52:28.985Z,1017.21
2016-11-16T00:53:37.681Z,1017.22
2016-11-16T00:54:47.043Z,1017.23
2016-11-16T00:55:55.881Z,1017.23
2016-11-16T00:57:04.905Z,1017.23
2016-11-16T00:58:13.925Z,1017.25
2016-11-16T00:59:22.928Z,1017.21
2016-11-16T01:00:31.655Z,1017.22
2016-11-16T01:01:40.699Z,1017.18
2016-11-16T01:02:49.721Z,1017.18
2016-11-16T01:03:59.360Z,1017.2
2016-11-16T01:05:08.101Z,1017.18
2016-11-16T01:06:17.408Z,1017.2
2016-11-16T01:07:26.448Z,1017.16
2016-11-16T01:08:35.468Z,1017.22
2016-11-16T01:09:44.190Z,1017.22
2016-11-16T01:10:53.246Z,1017.16
2016-11-16T01:12:02.587Z,1017.19
2016-11-16T01:13:11.668Z,1017.14
2016-11-16T01:14:20.372Z,1017.14
2016-11-16T01:15:29.078Z,1017.12
2016-11-16T01:16:38.112Z,1017.11
2016-11-16T01:17:47.436Z,1017.1
2016-11-16T01:18:56.455Z,1017.08
2016-11-16T01:20:05.775Z,1017.09
2016-11-16T01:21:15.144Z,1017.08
2016-11-16T01:22:23.902Z,1017.09
2016-11-16T01:23:33.238Z,1017.04
2016-11-16T01:24:43.195Z,1017.05
2016-11-16T01:25:51.278Z,1017.03
2016-11-16T01:27:00.900Z,1017.05
2016-11-16T01:28:09.923Z,1016.98
2016-11-16T01:29:18.965Z,1016.99
2016-11-16T01:30:28.303Z,1016.98
2016-11-16T01:31:37.025Z,1016.9
2016-11-16T01:32:46.031Z,1016.91
2016-11-16T01:33:54.741Z,1016.9
2016-11-16T01:35:03.764Z,1016.89
2016-11-16T01:36:12.480Z,1016.92
2016-11-16T01:37:21.506Z,1016.86
2016-11-16T01:38:30.554Z,1016.91
2016-11-16T01:39:39.570Z,1016.89
2016-11-16T01:40:48.305Z,1016.86
2016-11-16T01:41:57.336Z,1016.86
2016-11-16T01:43:06.691Z,1016.81
2016-11-16T01:44:15.693Z,1016.78
2016-11-16T01:45:24.730Z,1016.81
2016-11-16T01:46:34.038Z,1016.73
2016-11-16T01:47:43.332Z,1016.71
2016-11-16T01:48:52.357Z,1016.66
2016-11-16T01:50:01.690Z,1016.63
2016-11-16T01:51:11.029Z,1016.62
2016-11-16T01:52:20.065Z,1016.6
2016-11-16T01:53:29.082Z,1016.61
2016-11-16T01:54:38.432Z,1016.58
2016-11-16T01:55:47.139Z,1016.53
2016-11-16T01:56:56.185Z,1016.55
2016-11-16T01:58:05.200Z,1016.54
2016-11-16T01:59:14.505Z,1016.57
2016-11-16T02:00:23.561Z,1016.5
2016-11-16T02:01:32.261Z,1016.55
2016-11-16T02:02:41.597Z,1016.52
2016-11-16T02:03:50.613Z,1016.58
2016-11-16T02:04:59.331Z,1016.59
2016-11-16T02:06:08.368Z,1016.62
2016-11-16T02:07:17.433Z,1016.61
2016-11-16T02:08:26.458Z,1016.64
2016-11-16T02:09:35.477Z,1016.62
2016-11-16T02:10:44.494Z,1016.62
2016-11-16T02:11:54.174Z,1016.57
2016-11-16T02:13:03.247Z,1016.63
2016-11-16T02:14:12.590Z,1016.53
2016-11-16T02:15:22.599Z,1016.52
2016-11-16T02:16:31.353Z,1016.5
2016-11-16T02:17:40.686Z,1016.45
2016-11-16T02:18:49.737Z,1016.44
2016-11-16T02:19:59.065Z,1016.47
2016-11-16T02:21:08.094Z,1016.45
2016-11-16T02:22:17.108Z,1016.42
2016-11-16T02:23:25.820Z,1016.42
2016-11-16T02:24:34.850Z,1016.35
2016-11-16T02:25:44.173Z,1016.34
2016-11-16T02:26:53.212Z,1016.31
2016-11-16T02:28:02.522Z,1016.29
2016-11-16T02:29:11.867Z,1016.27
2016-11-16T02:30:20.573Z,1016.31
2016-11-16T02:31:29.593Z,1016.27
2016-11-16T02:32:38.300Z,1016.25
2016-11-16T02:33:47.685Z,1016.21
2016-11-16T02:34:57.004Z,1016.21
2016-11-16T02:36:05.712Z,1016.18
2016-11-16T02:37:14.413Z,1016.2
2016-11-16T02:38:23.427Z,1016.16
2016-11-16T02:39:32.445Z,1016.15
2016-11-16T02:40:41.177Z,1016.15
2016-11-16T02:41:49.907Z,1016.17
2016-11-16T02:42:59.221Z,1016.16
2016-11-16T02:44:07.963Z,1016.14
2016-11-16T02:45:17.010Z,1016.13
2016-11-16T02:46:25.700Z,1016.15
2016-11-16T02:47:34.715Z,1016.07
2016-11-16T02:48:43.713Z,1016.07
2016-11-16T02:49:52.439Z,1016.01
2016-11-16T02:51:01.459Z,1016
2016-11-16T02:52:10.509Z,1015.97
2016-11-16T02:53:19.879Z,1015.92
2016-11-16T02:54:28.882Z,1015.92
2016-11-16T02:55:38.228Z,1015.92
2016-11-16T02:56:47.866Z,1015.87
2016-11-16T02:57:56.618Z,1015.86
2016-11-16T02:59:05.362Z,1015.85
2016-11-16T03:00:14.679Z,1015.82
2016-11-16T03:01:23.722Z,1015.81
2016-11-16T03:02:33.020Z,1015.82
2016-11-16T03:03:42.039Z,1015.79
2016-11-16T03:04:50.717Z,1015.72
2016-11-16T03:05:59.715Z,1015.74
2016-11-16T03:07:08.407Z,1015.72
2016-11-16T03:08:18.057Z,1015.74
2016-11-16T03:09:27.165Z,1015.7
2016-11-16T03:10:36.479Z,1015.69
2016-11-16T03:11:45.230Z,1015.66
2016-11-16T03:12:54.582Z,1015.59
2016-11-16T03:14:03.919Z,1015.58
2016-11-16T03:15:12.607Z,1015.57
2016-11-16T03:16:21.946Z,1015.54
2016-11-16T03:17:30.647Z,1015.48
2016-11-16T03:18:39.349Z,1015.47
2016-11-16T03:19:49.334Z,1015.45
2016-11-16T03:20:58.423Z,1015.4
2016-11-16T03:22:07.483Z,1015.41
2016-11-16T03:23:16.209Z,1015.4
2016-11-16T03:24:25.243Z,1015.35
2016-11-16T03:25:34.267Z,1015.34
2016-11-16T03:26:43.328Z,1015.34
2016-11-16T03:27:52.665Z,1015.31
2016-11-16T03:29:02.007Z,1015.28
2016-11-16T03:30:11.064Z,1015.26
2016-11-16T03:31:20.495Z,1015.24
2016-11-16T03:32:29.881Z,1015.25
2016-11-16T03:33:38.599Z,1015.26
2016-11-16T03:34:47.951Z,1015.24
2016-11-16T03:35:56.701Z,1015.22
2016-11-16T03:37:05.722Z,1015.18
2016-11-16T03:38:14.431Z,1015.17
2016-11-16T03:39:23.245Z,1015.14
2016-11-16T03:40:32.622Z,1015.15
2016-11-16T03:41:41.994Z,1015.12
2016-11-16T03:42:50.728Z,1015.07
2016-11-16T03:43:59.615Z,1015.06
2016-11-16T03:45:09.149Z,1015.07
2016-11-16T03:46:17.910Z,1015.04
2016-11-16T03:47:27.258Z,1014.99
2016-11-16T03:48:36.325Z,1015
2016-11-16T03:49:45.976Z,1014.99
2016-11-16T03:50:55.308Z,1015.01
2016-11-16T03:52:04.642Z,1014.99
2016-11-16T03:53:13.667Z,1014.96
2016-11-16T03:54:23.302Z,1014.93
2016-11-16T03:55:32.397Z,1014.91
2016-11-16T03:56:41.712Z,1014.92
2016-11-16T03:57:50.452Z,1014.89
2016-11-16T03:58:59.809Z,1014.89
2016-11-16T04:00:08.851Z,1014.85
2016-11-16T04:01:17.587Z,1014.79
2016-11-16T04:02:26.924Z,1014.78
2016-11-16T04:03:35.954Z,1014.79
2016-11-16T04:04:45.326Z,1014.74
2016-11-16T04:05:54.094Z,1014.81
2016-11-16T04:07:03.168Z,1014.74
2016-11-16T04:08:12.473Z,1014.74
2016-11-16T04:09:21.816Z,1014.73
2016-11-16T04:10:30.824Z,1014.67
2016-11-16T04:11:39.581Z,1014.63
2016-11-16T04:12:48.407Z,1014.62
2016-11-16T04:13:57.119Z,1014.61
2016-11-16T04:15:05.855Z,1014.6
2016-11-16T04:16:14.587Z,1014.59
2016-11-16T04:17:23.915Z,1014.58
2016-11-16T04:18:33.292Z,1014.59
2016-11-16T04:19:42.049Z,1014.52
2016-11-16T04:20:51.065Z,1014.53
2016-11-16T04:21:59.771Z,1014.48
2016-11-16T04:23:08.824Z,1014.49
2016-11-16T04:24:17.641Z,1014.46
2016-11-16T04:25:26.995Z,1014.45
2016-11-16T04:26:36.314Z,1014.42
2016-11-16T04:27:45.697Z,1014.37
2016-11-16T04:28:54.773Z,1014.37
2016-11-16T04:30:03.487Z,1014.33
2016-11-16T04:31:12.575Z,1014.27
2016-11-16T04:32:21.344Z,1014.3
2016-11-16T04:33:30.718Z,1014.31
2016-11-16T04:34:40.060Z,1014.27
2016-11-16T04:35:49.378Z,1014.27
2016-11-16T04:36:59.326Z,1014.27
2016-11-16T04:38:08.432Z,1014.26
2016-11-16T04:39:17.449Z,1014.24
2016-11-16T04:40:26.206Z,1014.25
2016-11-16T04:41:34.934Z,1014.28
2016-11-16T04:42:43.986Z,1014.29
2016-11-16T04:43:53.037Z,1014.23
2016-11-16T04:45:01.882Z,1014.23
2016-11-16T04:46:11.517Z,1014.19
2016-11-16T04:47:20.279Z,1014.17
2016-11-16T04:48:29.301Z,1014.15
2016-11-16T04:49:38.608Z,1014.14
2016-11-16T04:50:47.308Z,1014.12
2016-11-16T04:51:56.031Z,1014.15
2016-11-16T04:53:05.049Z,1014.11
2016-11-16T04:54:14.072Z,1014.03
2016-11-16T04:55:23.100Z,1014.07
2016-11-16T04:56:32.117Z,1014.03
2016-11-16T04:57:41.444Z,1014.02
2016-11-16T04:58:50.852Z,1013.99
2016-11-16T05:00:00.185Z,1013.95
2016-11-16T05:01:09.524Z,1013.96
2016-11-16T05:02:18.546Z,1013.97
2016-11-16T05:03:27.912Z,1013.94
2016-11-16T05:04:36.963Z,1013.93
2016-11-16T05:05:45.972Z,1013.92
2016-11-16T05:06:54.691Z,1013.95
2016-11-16T05:08:03.738Z,1013.91
2016-11-16T05:09:13.414Z,1013.89
2016-11-16T05:10:22.213Z,1013.83
2016-11-16T05:11:31.553Z,1013.86
2016-11-16T05:12:40.662Z,1013.83
2016-11-16T05:13:49.737Z,1013.82
2016-11-16T05:14:59.151Z,1013.81
2016-11-16T05:16:08.507Z,1013.85
2016-11-16T05:17:17.581Z,1013.81
2016-11-16T05:18:26.653Z,1013.82
2016-11-16T05:19:35.375Z,1013.78
2016-11-16T05:20:44.143Z,1013.78
2016-11-16T05:21:53.154Z,1013.76
2016-11-16T05:23:02.176Z,1013.7
2016-11-16T05:24:10.890Z,1013.69
2016-11-16T05:25:19.933Z,1013.68
2016-11-16T05:26:28.688Z,1013.66
2016-11-16T05:27:37.759Z,1013.65
2016-11-16T05:28:46.769Z,1013.62
2016-11-16T05:29:55.785Z,1013.62
2016-11-16T05:31:05.147Z,1013.59
2016-11-16T05:32:13.880Z,1013.59
2016-11-16T05:33:22.589Z,1013.6
2016-11-16T05:34:31.659Z,1013.57
2016-11-16T05:35:40.988Z,1013.57
2016-11-16T05:36:49.684Z,1013.52
2016-11-16T05:37:58.715Z,1013.5
2016-11-16T05:39:08.405Z,1013.49
2016-11-16T05:40:17.461Z,1013.44
2016-11-16T05:41:26.533Z,1013.46
2016-11-16T05:42:35.277Z,1013.4
2016-11-16T05:43:44.033Z,1013.39
2016-11-16T05:44:53.668Z,1013.36
2016-11-16T05:46:03.039Z,1013.4
2016-11-16T05:47:11.758Z,1013.39
2016-11-16T05:48:21.078Z,1013.37
2016-11-16T05:49:30.117Z,1013.32
2016-11-16T05:50:39.779Z,1013.32
2016-11-16T05:51:48.787Z,1013.3
2016-11-16T05:52:58.101Z,1013.32
2016-11-16T05:54:07.163Z,1013.28
2016-11-16T05:55:16.210Z,1013.29
2016-11-16T05:56:25.206Z,1013.29
2016-11-16T05:57:34.555Z,1013.3
2016-11-16T05:58:43.570Z,1013.27
2016-11-16T05:59:52.293Z,1013.27
2016-11-16T06:01:01.012Z,1013.27
2016-11-16T06:02:09.747Z,1013.24
2016-11-16T06:03:18.865Z,1013.27
2016-11-16T06:04:28.191Z,1013.28
2016-11-16T06:05:36.869Z,1013.26
2016-11-16T06:06:45.868Z,1013.28
2016-11-16T06:07:54.944Z,1013.26
2016-11-16T06:09:03.687Z,1013.22
2016-11-16T06:10:13.009Z,1013.23
2016-11-16T06:11:22.066Z,1013.26
2016-11-16T06:12:31.419Z,1013.28
2016-11-16T06:13:40.426Z,1013.31
2016-11-16T06:14:49.119Z,1013.28
2016-11-16T06:15:58.135Z,1013.25
2016-11-16T06:17:07.150Z,1013.24
2016-11-16T06:18:16.186Z,1013.22
2016-11-16T06:19:25.192Z,1013.27
2016-11-16T06:20:34.801Z,1013.23
2016-11-16T06:21:43.811Z,1013.21
2016-11-16T06:22:52.530Z,1013.21
2016-11-16T06:24:01.899Z,1013.18
2016-11-16T06:25:10.590Z,1013.21
2016-11-16T06:26:19.607Z,1013.19
2016-11-16T06:27:28.610Z,1013.2
2016-11-16T06:28:37.652Z,1013.19
2016-11-16T06:29:46.358Z,1013.22
2016-11-16T06:30:55.088Z,1013.19
2016-11-16T06:32:04.094Z,1013.16
2016-11-16T06:33:13.101Z,1013.21
2016-11-16T06:34:21.833Z,1013.2
2016-11-16T06:35:30.853Z,1013.2
2016-11-16T06:36:39.546Z,1013.18
2016-11-16T06:37:48.902Z,1013.16
2016-11-16T06:38:57.605Z,1013.22
2016-11-16T06:40:06.949Z,1013.19
2016-11-16T06:41:16.284Z,1013.15
2016-11-16T06:42:24.981Z,1013.13
2016-11-16T06:43:34.286Z,1013.16
2016-11-16T06:44:43.316Z,1013.12
2016-11-16T06:45:52.322Z,1013.13
2016-11-16T06:47:01.649Z,1013.07
2016-11-16T06:48:10.971Z,1013.09
2016-11-16T06:49:20.596Z,1013.04
2016-11-16T06:50:30.209Z,1013.05
2016-11-16T06:51:39.218Z,1013.06
2016-11-16T06:52:48.521Z,1013.07
2016-11-16T06:53:57.588Z,1013.03
2016-11-16T06:55:06.611Z,1013.04
2016-11-16T06:56:15.610Z,1013.07
2016-11-16T06:57:24.361Z,1013.01
2016-11-16T06:58:33.073Z,1013.02
2016-11-16T06:59:42.122Z,1013.04
2016-11-16T07:00:51.193Z,1013
2016-11-16T07:02:00.506Z,1013
2016-11-16T07:03:09.545Z,1012.98
2016-11-16T07:04:18.641Z,1012.96
2016-11-16T07:05:28.000Z,1012.97
2016-11-16T07:06:36.693Z,1012.93
2016-11-16T07:07:46.004Z,1012.92
2016-11-16T07:08:55.081Z,1012.91
2016-11-16T07:10:04.102Z,1012.94
2016-11-16T07:11:13.148Z,1012.89
2016-11-16T07:12:21.859Z,1012.9
2016-11-16T07:13:31.233Z,1012.87
2016-11-16T07:14:39.943Z,1012.84
2016-11-16T07:15:49.282Z,1012.91
2016-11-16T07:16:58.019Z,1012.88
2016-11-16T07:18:06.709Z,1012.9
2016-11-16T07:19:16.325Z,1012.89
2016-11-16T07:20:25.325Z,1012.9
2016-11-16T07:21:34.331Z,1012.87
2016-11-16T07:22:43.355Z,1012.85
2016-11-16T07:23:52.078Z,1012.88
2016-11-16T07:25:01.106Z,1012.83
2016-11-16T07:26:10.119Z,1012.84
2016-11-16T07:27:18.822Z,1012.83
2016-11-16T07:28:28.424Z,1012.81
2016-11-16T07:29:37.765Z,1012.87
2016-11-16T07:30:46.476Z,1012.81
2016-11-16T07:31:55.807Z,1012.81
2016-11-16T07:33:04.522Z,1012.79
2016-11-16T07:34:13.265Z,1012.82
2016-11-16T07:35:22.589Z,1012.8
2016-11-16T07:36:31.372Z,1012.83
2016-11-16T07:37:41.370Z,1012.8
2016-11-16T07:38:50.700Z,1012.75
2016-11-16T07:39:59.397Z,1012.8
2016-11-16T07:41:08.152Z,1012.75
2016-11-16T07:42:17.468Z,1012.73
2016-11-16T07:43:26.464Z,1012.72
2016-11-16T07:44:35.492Z,1012.7
2016-11-16T07:45:44.822Z,1012.69
2016-11-16T07:46:53.847Z,1012.68
2016-11-16T07:48:03.472Z,1012.64
2016-11-16T07:49:12.224Z,1012.7
2016-11-16T07:50:21.026Z,1012.65
2016-11-16T07:51:30.071Z,1012.67
2016-11-16T07:52:38.797Z,1012.67
2016-11-16T07:53:47.526Z,1012.63
2016-11-16T07:54:56.247Z,1012.62
2016-11-16T07:56:05.259Z,1012.61
2016-11-16T07:57:14.260Z,1012.68
2016-11-16T07:58:22.979Z,1012.61
2016-11-16T07:59:31.964Z,1012.63
2016-11-16T08:00:40.670Z,1012.63
2016-11-16T08:01:50.009Z,1012.61
2016-11-16T08:02:58.744Z,1012.64
2016-11-16T08:04:08.354Z,1012.63
2016-11-16T08:05:17.657Z,1012.59
2016-11-16T08:06:26.672Z,1012.57
2016-11-16T08:07:35.664Z,1012.6
2016-11-16T08:08:45.000Z,1012.57
2016-11-16T08:09:54.315Z,1012.58
2016-11-16T08:11:03.626Z,1012.6
2016-11-16T08:12:12.938Z,1012.56
2016-11-16T08:13:21.940Z,1012.54
2016-11-16T08:14:31.256Z,1012.52
2016-11-16T08:15:40.610Z,1012.48
2016-11-16T08:16:49.930Z,1012.5
2016-11-16T08:17:59.236Z,1012.51
2016-11-16T08:19:08.250Z,1012.51
2016-11-16T08:20:17.272Z,1012.46
2016-11-16T08:21:26.904Z,1012.41
2016-11-16T08:22:35.925Z,1012.41
2016-11-16T08:23:45.306Z,1012.39
2016-11-16T08:24:54.699Z,1012.43
2016-11-16T08:26:03.759Z,1012.42
2016-11-16T08:27:13.506Z,1012.42
2016-11-16T08:28:22.871Z,1012.4
2016-11-16T08:29:32.538Z,1012.39
2016-11-16T08:30:41.316Z,1012.39
2016-11-16T08:31:50.632Z,1012.39
2016-11-16T08:32:59.665Z,1012.32
2016-11-16T08:34:09.366Z,1012.36
2016-11-16T08:35:18.694Z,1012.32
2016-11-16T08:36:27.430Z,1012.37
2016-11-16T08:37:36.504Z,1012.32
2016-11-16T08:38:46.182Z,1012.34
2016-11-16T08:39:55.241Z,1012.35
2016-11-16T08:41:04.260Z,1012.38
2016-11-16T08:42:13.642Z,1012.33
2016-11-16T08:43:22.375Z,1012.28
2016-11-16T08:44:31.776Z,1012.34
2016-11-16T08:45:40.874Z,1012.32
2016-11-16T08:46:49.945Z,1012.35
2016-11-16T08:47:59.573Z,1012.35
2016-11-16T08:49:08.986Z,1012.34
2016-11-16T08:50:18.016Z,1012.32
2016-11-16T08:51:27.120Z,1012.36
2016-11-16T08:52:36.170Z,1012.3
2016-11-16T08:53:44.922Z,1012.36
2016-11-16T08:54:53.664Z,1012.27
2016-11-16T08:56:02.696Z,1012.28
2016-11-16T08:57:11.450Z,1012.24
2016-11-16T08:58:20.545Z,1012.23
2016-11-16T08:59:29.615Z,1012.2
2016-11-16T09:00:39.019Z,1012.15
2016-11-16T09:01:47.708Z,1012.15
2016-11-16T09:02:57.147Z,1012.11
2016-11-16T09:04:06.244Z,1012.09
2016-11-16T09:05:15.270Z,1012.08
2016-11-16T09:06:24.355Z,1012.09
2016-11-16T09:07:33.103Z,1012.11
2016-11-16T09:08:42.172Z,1012.05
2016-11-16T09:09:51.265Z,1012.1
2016-11-16T09:10:59.994Z,1012.02
2016-11-16T09:12:09.380Z,1012.06
2016-11-16T09:13:18.416Z,1012.06
2016-11-16T09:14:27.836Z,1012.06
2016-11-16T09:15:37.535Z,1011.98
2016-11-16T09:16:47.483Z,1012
2016-11-16T09:17:56.247Z,1012.01
2016-11-16T09:19:05.608Z,1012.01
2016-11-16T09:20:14.779Z,1012
2016-11-16T09:21:23.831Z,1012.02
2016-11-16T09:22:32.684Z,1012.03
2016-11-16T09:23:41.795Z,1012.06
2016-11-16T09:24:51.076Z,1012.05
2016-11-16T09:26:00.218Z,1012.06
2016-11-16T09:27:08.953Z,1012
2016-11-16T09:28:17.983Z,1012.01
2016-11-16T09:29:26.732Z,1012.01
2016-11-16T09:30:35.486Z,1011.96
2016-11-16T09:31:44.824Z,1011.96
2016-11-16T09:32:53.948Z,1011.92
2016-11-16T09:34:03.631Z,1012
2016-11-16T09:35:12.707Z,1011.94
2016-11-16T09:36:21.877Z,1011.97
2016-11-16T09:37:31.254Z,1011.95
2016-11-16T09:38:39.987Z,1011.94
2016-11-16T09:39:49.350Z,1011.98
2016-11-16T09:40:58.721Z,1011.98
2016-11-16T09:42:07.819Z,1011.96
2016-11-16T09:43:16.569Z,1011.98
2016-11-16T09:44:25.888Z,1011.99
2016-11-16T09:45:34.590Z,1012.01
2016-11-16T09:46:43.371Z,1011.99
2016-11-16T09:47:52.417Z,1012
2016-11-16T09:49:01.434Z,1011.98
2016-11-16T09:50:10.256Z,1011.97
2016-11-16T09:51:19.036Z,1011.97
2016-11-16T09:52:28.073Z,1011.96
2016-11-16T09:53:37.085Z,1011.95
2016-11-16T09:54:46.122Z,1011.94
2016-11-16T09:55:55.154Z,1011.94
2016-11-16T09:57:03.846Z,1011.93
2016-11-16T09:58:12.944Z,1011.95
2016-11-16T09:59:21.672Z,1011.88
2016-11-16T10:00:30.428Z,1011.92
2016-11-16T10:01:39.777Z,1011.85
2016-11-16T10:02:48.981Z,1011.84
2016-11-16T10:03:57.791Z,1011.86
2016-11-16T10:05:07.486Z,1011.81
2016-11-16T10:06:16.851Z,1011.79
2016-11-16T10:07:25.929Z,1011.79
2016-11-16T10:08:35.011Z,1011.78
2016-11-16T10:09:43.768Z,1011.78
2016-11-16T10:10:52.866Z,1011.7
2016-11-16T10:12:02.874Z,1011.71
2016-11-16T10:13:11.936Z,1011.65
2016-11-16T10:14:21.017Z,1011.61
2016-11-16T10:15:30.046Z,1011.68
2016-11-16T10:16:39.074Z,1011.6
2016-11-16T10:17:48.072Z,1011.64
2016-11-16T10:18:57.121Z,1011.66
2016-11-16T10:20:06.109Z,1011.63
2016-11-16T10:21:14.820Z,1011.65
2016-11-16T10:22:24.819Z,1011.64
2016-11-16T10:23:34.172Z,1011.63
2016-11-16T10:24:42.924Z,1011.61
2016-11-16T10:25:51.924Z,1011.61
2016-11-16T10:27:01.278Z,1011.59
2016-11-16T10:28:10.015Z,1011.58
2016-11-16T10:29:19.409Z,1011.56
2016-11-16T10:30:29.024Z,1011.57
2016-11-16T10:31:38.059Z,1011.56
2016-11-16T10:32:47.376Z,1011.49
2016-11-16T10:33:56.151Z,1011.47
2016-11-16T10:35:05.213Z,1011.46
2016-11-16T10:36:14.648Z,1011.45
2016-11-16T10:37:23.714Z,1011.42
2016-11-16T10:38:33.114Z,1011.37
2016-11-16T10:39:42.129Z,1011.35
2016-11-16T10:40:51.750Z,1011.33
2016-11-16T10:42:00.459Z,1011.31
2016-11-16T10:43:09.780Z,1011.33
2016-11-16T10:44:18.808Z,1011.3
2016-11-16T10:45:28.174Z,1011.24
2016-11-16T10:46:36.866Z,1011.24
2016-11-16T10:47:46.244Z,1011.26
2016-11-16T10:48:55.602Z,1011.26
2016-11-16T10:50:04.637Z,1011.21
2016-11-16T10:51:13.355Z,1011.28
2016-11-16T10:52:22.384Z,1011.25
2016-11-16T10:53:31.442Z,1011.2
2016-11-16T10:54:40.203Z,1011.18
2016-11-16T10:55:49.303Z,1011.18
2016-11-16T10:56:58.327Z,1011.2
2016-11-16T10:58:07.342Z,1011.16
2016-11-16T10:59:16.390Z,1011.18
2016-11-16T11:00:25.487Z,1011.15
2016-11-16T11:01:34.888Z,1011.19
2016-11-16T11:02:43.578Z,1011.22
2016-11-16T11:03:52.944Z,1011.18
2016-11-16T11:05:02.288Z,1011.13
2016-11-16T11:06:11.356Z,1011.12
2016-11-16T11:07:20.415Z,1011.1
2016-11-16T11:08:29.778Z,1011.11
2016-11-16T11:09:38.806Z,1011.1
2016-11-16T11:10:48.159Z,1011.08
2016-11-16T11:11:57.220Z,1011.13
2016-11-16T11:13:06.561Z,1011.13
2016-11-16T11:14:16.218Z,1011.07
2016-11-16T11:15:25.538Z,1011.07
2016-11-16T11:16:34.619Z,1011
2016-11-16T11:17:44.240Z,1011.02
2016-11-16T11:18:52.954Z,1011
2016-11-16T11:20:01.675Z,1011
2016-11-16T11:21:10.404Z,1010.94
2016-11-16T11:22:19.481Z,1010.97
2016-11-16T11:23:28.518Z,1010.99
2016-11-16T11:24:37.929Z,1010.99
2016-11-16T11:25:46.653Z,1011
2016-11-16T11:26:55.723Z,1010.98
2016-11-16T11:28:04.468Z,1011.01
2016-11-16T11:29:13.820Z,1010.97
2016-11-16T11:30:23.468Z,1010.97
2016-11-16T11:31:32.483Z,1010.95
2016-11-16T11:32:41.526Z,1010.97
2016-11-16T11:33:50.863Z,1010.93
2016-11-16T11:35:00.507Z,1010.96
2016-11-16T11:36:09.571Z,1010.93
2016-11-16T11:37:18.328Z,1010.86
2016-11-16T11:38:27.680Z,1010.92
2016-11-16T11:39:36.543Z,1010.86
2016-11-16T11:40:45.890Z,1010.76
2016-11-16T11:41:54.944Z,1010.8
2016-11-16T11:43:03.660Z,1010.73
2016-11-16T11:44:12.409Z,1010.85
2016-11-16T11:45:21.777Z,1010.75
2016-11-16T11:46:30.822Z,1010.7
2016-11-16T11:47:40.208Z,1010.67
2016-11-16T11:48:48.948Z,1010.72
2016-11-16T11:49:58.048Z,1010.69
2016-11-16T11:51:06.783Z,1010.73
2016-11-16T11:52:15.810Z,1010.67
2016-11-16T11:53:24.884Z,1010.68
2016-11-16T11:54:33.903Z,1010.64
2016-11-16T11:55:43.860Z,1010.7
2016-11-16T11:56:53.281Z,1010.63
2016-11-16T11:58:02.040Z,1010.63
2016-11-16T11:59:11.071Z,1010.63
2016-11-16T12:00:20.497Z,1010.62
2016-11-16T12:01:29.225Z,1010.58
2016-11-16T12:02:37.995Z,1010.58
2016-11-16T12:03:47.327Z,1010.6
2016-11-16T12:04:56.398Z,1010.59
2016-11-16T12:06:05.406Z,1010.56
2016-11-16T12:07:14.177Z,1010.52
2016-11-16T12:08:23.490Z,1010.48
2016-11-16T12:09:32.236Z,1010.43
2016-11-16T12:10:41.621Z,1010.42
2016-11-16T12:11:51.017Z,1010.49
2016-11-16T12:13:00.061Z,1010.37
2016-11-16T12:14:08.851Z,1010.37
2016-11-16T12:15:17.671Z,1010.38
2016-11-16T12:16:26.685Z,1010.33
2016-11-16T12:17:36.118Z,1010.26
2016-11-16T12:18:44.823Z,1010.33
2016-11-16T12:19:53.637Z,1010.32
2016-11-16T12:21:03.288Z,1010.3
2016-11-16T12:22:12.391Z,1010.27
2016-11-16T12:23:21.754Z,1010.24
2016-11-16T12:24:30.819Z,1010.25
2016-11-16T12:25:39.829Z,1010.29
2016-11-16T12:26:49.211Z,1010.27
2016-11-16T12:27:58.533Z,1010.24
2016-11-16T12:29:07.376Z,1010.27
2016-11-16T12:30:16.703Z,1010.23
2016-11-16T12:31:26.050Z,1010.22
2016-11-16T12:32:34.848Z,1010.23
2016-11-16T12:33:43.579Z,1010.2
2016-11-16T12:34:52.365Z,1010.21
2016-11-16T12:36:01.238Z,1010.24
2016-11-16T12:37:10.574Z,1010.2
2016-11-16T12:38:19.357Z,1010.19
2016-11-16T12:39:28.117Z,1010.2
2016-11-16T12:40:37.212Z,1010.19
2016-11-16T12:41:46.291Z,1010.18
2016-11-16T12:42:55.053Z,1010.18
2016-11-16T12:44:03.780Z,1010.17
2016-11-16T12:45:13.160Z,1010.12
2016-11-16T12:46:22.850Z,1010.15
2016-11-16T12:47:31.851Z,1010.2
2016-11-16T12:48:40.928Z,1010.13
2016-11-16T12:49:50.289Z,1010.2
2016-11-16T12:50:59.341Z,1010.13
2016-11-16T12:52:08.443Z,1010.14
2016-11-16T12:53:17.850Z,1010.11
2016-11-16T12:54:26.583Z,1010.14
2016-11-16T12:55:35.638Z,1010.09
2016-11-16T12:56:44.398Z,1010.12
2016-11-16T12:57:53.711Z,1010.11
2016-11-16T12:59:02.488Z,1010.09
2016-11-16T13:00:11.524Z,1010.12
2016-11-16T13:01:20.571Z,1010.09
2016-11-16T13:02:29.912Z,1010.04
2016-11-16T13:03:38.654Z,1010.05
2016-11-16T13:04:47.702Z,1010.06
2016-11-16T13:05:57.019Z,1010.06
2016-11-16T13:07:06.092Z,1010.02
2016-11-16T13:08:15.179Z,1010.03
2016-11-16T13:09:24.796Z,1010.07
2016-11-16T13:10:33.507Z,1010.07
2016-11-16T13:11:42.250Z,1010.04
2016-11-16T13:12:50.963Z,1010.07
2016-11-16T13:14:00.007Z,1009.99
2016-11-16T13:15:08.749Z,1010.04
2016-11-16T13:16:18.176Z,1010.04
2016-11-16T13:17:26.888Z,1010
2016-11-16T13:18:36.293Z,1009.97
2016-11-16T13:19:45.346Z,1009.96
2016-11-16T13:20:54.620Z,1009.96
2016-11-16T13:22:03.718Z,1009.9
2016-11-16T13:23:12.782Z,1009.89
2016-11-16T13:24:22.132Z,1009.88
2016-11-16T13:25:30.973Z,1009.84
2016-11-16T13:26:40.051Z,1009.86
2016-11-16T13:27:49.160Z,1009.86
2016-11-16T13:28:58.229Z,1009.89
2016-11-16T13:30:07.578Z,1009.94
2016-11-16T13:31:16.984Z,1009.93
2016-11-16T13:32:26.301Z,1009.92
2016-11-16T13:33:35.662Z,1009.96
2016-11-16T13:34:44.707Z,1009.98
2016-11-16T13:35:53.437Z,1009.92
2016-11-16T13:37:02.198Z,1009.92
2016-11-16T13:38:12.218Z,1009.98
2016-11-16T13:39:20.918Z,1009.96
2016-11-16T13:40:30.649Z,1009.94
2016-11-16T13:41:39.440Z,1009.9
2016-11-16T13:42:48.479Z,1009.9
2016-11-16T13:43:58.161Z,1009.9
2016-11-16T13:45:07.174Z,1009.87
2016-11-16T13:46:16.227Z,1009.83
2016-11-16T13:47:25.263Z,1009.89
2016-11-16T13:48:33.988Z,1009.85
2016-11-16T13:49:43.047Z,1009.86
2016-11-16T13:50:52.059Z,1009.92
2016-11-16T13:52:00.829Z,1009.86
2016-11-16T13:53:09.574Z,1009.92
2016-11-16T13:54:18.937Z,1009.87
2016-11-16T13:55:27.963Z,1009.89
2016-11-16T13:56:36.735Z,1009.94
2016-11-16T13:57:46.157Z,1009.94
2016-11-16T13:58:54.896Z,1009.91
2016-11-16T14:00:03.944Z,1009.93